Onweer radar Meer informatie blitzortung!


Regen radar Meer informatie rain snow radar



METAR rapporten vliegvelden

   
EHRD - Rotterdam
Gewijzigd: 16-11-2018 14:25
Nevel, Bewolking  
Nevel, Bewolking  
   Wind: Oosten 11.1 km/h
Wind: Oosten 11.1 km/h
Temperatuur: 5°C
Voelt als: 2°C
Dauwpunt: 5°C
Vochtigheid: 100%
Barometer: 1028 hPa
Bewolking: Overcast
Zicht: 5 km
Bewolking: Gedeeltelijk bewolkt 500 ft,
Bewolking 600 ft
EHRD 161325Z AUTO 09006KT 060V120 4800 BR SCT005 OVC006 05/05 Q1028 BECMG 5000
EBAW - Antwerpen
Gewijzigd: 16-11-2018 14:20
Nevel, Bewolking  
Nevel, Bewolking  
   Wind: Oosten 9.3 km/h
Wind: Oosten 9.3 km/h
Bewolking: Overcast
Zicht: 2 km
Bewolking: Bewolking 200 ft
EBAW 161320Z 09005KT 060V120 1500 BR OVC002 06/// Q1027 BECMG VIS 4000 BR
EHAM - Amsterdam
Gewijzigd: 16-11-2018 14:25
Nevel, Bewolking  
Nevel, Bewolking  
   Wind: Oosten 11.1 km/h
Wind: Oosten 11.1 km/h
Temperatuur: 4°C
Voelt als: 1°C
Dauwpunt: 4°C
Vochtigheid: 100%
Barometer: 1028 hPa
Bewolking: Overcast
Zicht: 2 km
Bewolking: Bewolking 300 ft
EHAM 161325Z 09006KT 050V120 2000 BR OVC003 04/04 Q1028 BECMG 3000 SCT003 BKN005
EHEH - Eindhoven
Gewijzigd: 16-11-2018 14:25
Helder  
Helder  
   Wind: OZO 7.4 km/h
Wind: OZO 7.4 km/h
Temperatuur: 9°C
Voelt als: 8°C
Dauwpunt: 4°C
Vochtigheid: 71%
Barometer: 1027 hPa
Bewolking: Clear
Zicht: meer dan 10 km
Bewolking: Helder ft
EHEH 161325Z AUTO 11004KT 080V160 9999 NCD 09/04 Q1027 BLU 12008KT CAVOK
  

Script ontwikkeld door  Saratoga-weather.org Aangepast voor de template door  Weerstation Leuven

U vindt ons ook hier:

Het Weer Aktueel

Weather Underground

Apparatuur in gebruik:

Weerstation
Davis VP2

Weerprogramma
Cumulus

Weercomputer
Pipo X8 met Windows 10

Davis VP2

Cumulus

Pipo X8 with Windows 10